sensor_id;sensor_type;location;lat;lon;timestamp;P1;durP1;ratioP1;P2;durP2;ratioP2
71204;SDS011;58935;54.498;18.544;2023-12-22T00:00:00;2.80;;;1.90;;
71204;SDS011;58935;54.498;18.544;2023-12-22T00:02:25;7.40;;;2.10;;
71204;SDS011;58935;54.498;18.544;2023-12-22T00:04:53;3.00;;;1.90;;
71204;SDS011;58935;54.498;18.544;2023-12-22T00:07:19;5.20;;;2.00;;
71204;SDS011;58935;54.498;18.544;2023-12-22T00:09:45;2.70;;;1.60;;
71204;SDS011;58935;54.498;18.544;2023-12-22T00:12:10;2.80;;;1.60;;
71204;SDS011;58935;54.498;18.544;2023-12-22T00:14:36;3.60;;;1.60;;
71204;SDS011;58935;54.498;18.544;2023-12-22T00:17:03;2.90;;;1.60;;
71204;SDS011;58935;54.498;18.544;2023-12-22T00:19:31;3.80;;;1.10;;
71204;SDS011;58935;54.498;18.544;2023-12-22T00:21:56;2.50;;;1.30;;
71204;SDS011;58935;54.498;18.544;2023-12-22T00:24:25;2.60;;;1.50;;
71204;SDS011;58935;54.498;18.544;2023-12-22T00:26:50;2.10;;;1.30;;
71204;SDS011;58935;54.498;18.544;2023-12-22T00:29:16;5.50;;;1.60;;
71204;SDS011;58935;54.498;18.544;2023-12-22T00:31:41;2.90;;;1.40;;
71204;SDS011;58935;54.498;18.544;2023-12-22T00:34:07;4.50;;;1.40;;
71204;SDS011;58935;54.498;18.544;2023-12-22T00:36:32;3.40;;;1.50;;
71204;SDS011;58935;54.498;18.544;2023-12-22T00:39:00;3.50;;;1.60;;
71204;SDS011;58935;54.498;18.544;2023-12-22T00:41:25;2.10;;;1.20;;
71204;SDS011;58935;54.498;18.544;2023-12-22T00:43:51;2.80;;;1.20;;
71204;SDS011;58935;54.498;18.544;2023-12-22T00:46:17;3.70;;;1.70;;
71204;SDS011;58935;54.498;18.544;2023-12-22T00:48:42;4.50;;;2.00;;
71204;SDS011;58935;54.498;18.544;2023-12-22T00:51:08;2.80;;;1.60;;
71204;SDS011;58935;54.498;18.544;2023-12-22T00:53:33;3.40;;;1.50;;
71204;SDS011;58935;54.498;18.544;2023-12-22T00:56:00;7.10;;;1.80;;
71204;SDS011;58935;54.498;18.544;2023-12-22T00:58:29;4.80;;;1.90;;
71204;SDS011;58935;54.498;18.544;2023-12-22T01:00:55;2.40;;;1.60;;
71204;SDS011;58935;54.498;18.544;2023-12-22T01:03:21;5.40;;;1.90;;
71204;SDS011;58935;54.498;18.544;2023-12-22T01:05:47;5.00;;;1.70;;
71204;SDS011;58935;54.498;18.544;2023-12-22T01:08:13;5.90;;;2.60;;
71204;SDS011;58935;54.498;18.544;2023-12-22T01:10:38;3.50;;;1.30;;
71204;SDS011;58935;54.498;18.544;2023-12-22T01:13:04;2.30;;;1.20;;
71204;SDS011;58935;54.498;18.544;2023-12-22T01:15:29;1.90;;;0.90;;
71204;SDS011;58935;54.498;18.544;2023-12-22T01:17:55;1.50;;;1.00;;
71204;SDS011;58935;54.498;18.544;2023-12-22T01:20:20;1.00;;;0.90;;
71204;SDS011;58935;54.498;18.544;2023-12-22T01:22:45;3.90;;;1.10;;
71204;SDS011;58935;54.498;18.544;2023-12-22T01:25:11;0.90;;;0.70;;
71204;SDS011;58935;54.498;18.544;2023-12-22T01:27:36;2.10;;;1.20;;
71204;SDS011;58935;54.498;18.544;2023-12-22T01:30:02;0.80;;;0.80;;
71204;SDS011;58935;54.498;18.544;2023-12-22T01:32:28;0.90;;;0.90;;
71204;SDS011;58935;54.498;18.544;2023-12-22T01:34:59;0.80;;;0.80;;
71204;SDS011;58935;54.498;18.544;2023-12-22T01:37:29;1.30;;;0.80;;
71204;SDS011;58935;54.498;18.544;2023-12-22T01:39:55;0.90;;;0.90;;
71204;SDS011;58935;54.498;18.544;2023-12-22T01:42:21;1.20;;;1.00;;
71204;SDS011;58935;54.498;18.544;2023-12-22T01:44:48;1.00;;;1.00;;
71204;SDS011;58935;54.498;18.544;2023-12-22T01:47:14;0.80;;;0.80;;
71204;SDS011;58935;54.498;18.544;2023-12-22T01:49:40;0.90;;;0.80;;
71204;SDS011;58935;54.498;18.544;2023-12-22T01:52:08;0.90;;;0.90;;
71204;SDS011;58935;54.498;18.544;2023-12-22T01:54:37;0.90;;;0.80;;
71204;SDS011;58935;54.498;18.544;2023-12-22T01:57:03;6.20;;;1.40;;
71204;SDS011;58935;54.498;18.544;2023-12-22T01:59:30;1.10;;;1.10;;
71204;SDS011;58935;54.498;18.544;2023-12-22T02:04:37;2.40;;;1.20;;
71204;SDS011;58935;54.498;18.544;2023-12-22T02:07:05;1.20;;;1.10;;
71204;SDS011;58935;54.498;18.544;2023-12-22T02:09:34;0.90;;;0.90;;
71204;SDS011;58935;54.498;18.544;2023-12-22T02:12:03;1.00;;;1.00;;
71204;SDS011;58935;54.498;18.544;2023-12-22T02:14:29;1.10;;;1.10;;
71204;SDS011;58935;54.498;18.544;2023-12-22T02:17:08;1.50;;;0.90;;
71204;SDS011;58935;54.498;18.544;2023-12-22T02:19:42;1.30;;;0.90;;
71204;SDS011;58935;54.498;18.544;2023-12-22T02:22:10;1.60;;;1.40;;
71204;SDS011;58935;54.498;18.544;2023-12-22T02:24:40;2.50;;;1.50;;
71204;SDS011;58935;54.498;18.544;2023-12-22T02:27:17;3.10;;;1.50;;
71204;SDS011;58935;54.498;18.544;2023-12-22T02:29:57;1.30;;;1.10;;
71204;SDS011;58935;54.498;18.544;2023-12-22T02:32:34;2.00;;;1.70;;
71204;SDS011;58935;54.498;18.544;2023-12-22T02:35:05;2.20;;;1.70;;
71204;SDS011;58935;54.498;18.544;2023-12-22T02:40:07;5.60;;;1.70;;
71204;SDS011;58935;54.498;18.544;2023-12-22T02:42:36;1.60;;;1.30;;
71204;SDS011;58935;54.498;18.544;2023-12-22T02:45:03;1.40;;;1.20;;
71204;SDS011;58935;54.498;18.544;2023-12-22T02:47:33;3.00;;;1.60;;
71204;SDS011;58935;54.498;18.544;2023-12-22T02:49:58;3.10;;;1.30;;
71204;SDS011;58935;54.498;18.544;2023-12-22T02:52:24;1.90;;;1.70;;
71204;SDS011;58935;54.498;18.544;2023-12-22T02:54:50;2.10;;;1.40;;
71204;SDS011;58935;54.498;18.544;2023-12-22T02:57:15;1.50;;;1.30;;
71204;SDS011;58935;54.498;18.544;2023-12-22T02:59:41;1.70;;;1.30;;
71204;SDS011;58935;54.498;18.544;2023-12-22T03:02:06;1.60;;;1.10;;
71204;SDS011;58935;54.498;18.544;2023-12-22T03:04:34;3.60;;;1.50;;
71204;SDS011;58935;54.498;18.544;2023-12-22T03:07:00;2.50;;;1.70;;
71204;SDS011;58935;54.498;18.544;2023-12-22T03:09:25;4.50;;;1.50;;
71204;SDS011;58935;54.498;18.544;2023-12-22T03:11:50;1.80;;;1.40;;
71204;SDS011;58935;54.498;18.544;2023-12-22T03:14:20;2.10;;;1.50;;
71204;SDS011;58935;54.498;18.544;2023-12-22T03:16:48;5.00;;;1.50;;
71204;SDS011;58935;54.498;18.544;2023-12-22T03:19:13;2.60;;;1.70;;
71204;SDS011;58935;54.498;18.544;2023-12-22T03:21:39;1.40;;;1.20;;
71204;SDS011;58935;54.498;18.544;2023-12-22T03:24:04;2.00;;;1.50;;
71204;SDS011;58935;54.498;18.544;2023-12-22T03:26:32;2.00;;;1.00;;
71204;SDS011;58935;54.498;18.544;2023-12-22T03:28:58;1.10;;;1.10;;
71204;SDS011;58935;54.498;18.544;2023-12-22T03:31:23;1.20;;;1.20;;
71204;SDS011;58935;54.498;18.544;2023-12-22T03:33:48;0.90;;;0.90;;
71204;SDS011;58935;54.498;18.544;2023-12-22T03:36:16;1.10;;;1.10;;
71204;SDS011;58935;54.498;18.544;2023-12-22T03:38:41;1.40;;;1.20;;
71204;SDS011;58935;54.498;18.544;2023-12-22T03:41:09;0.90;;;0.90;;
71204;SDS011;58935;54.498;18.544;2023-12-22T03:43:35;0.80;;;0.80;;
71204;SDS011;58935;54.498;18.544;2023-12-22T03:46:00;1.60;;;1.20;;
71204;SDS011;58935;54.498;18.544;2023-12-22T03:48:26;1.00;;;1.00;;
71204;SDS011;58935;54.498;18.544;2023-12-22T03:50:51;0.90;;;0.90;;
71204;SDS011;58935;54.498;18.544;2023-12-22T03:53:16;1.10;;;1.00;;
71204;SDS011;58935;54.498;18.544;2023-12-22T03:55:42;1.10;;;1.10;;
71204;SDS011;58935;54.498;18.544;2023-12-22T03:58:07;3.00;;;1.10;;
71204;SDS011;58935;54.498;18.544;2023-12-22T04:00:35;1.40;;;1.30;;
71204;SDS011;58935;54.498;18.544;2023-12-22T04:03:01;1.10;;;1.10;;
71204;SDS011;58935;54.498;18.544;2023-12-22T04:05:27;1.70;;;1.60;;
71204;SDS011;58935;54.498;18.544;2023-12-22T04:07:53;4.50;;;1.80;;
71204;SDS011;58935;54.498;18.544;2023-12-22T04:10:18;1.60;;;1.50;;
71204;SDS011;58935;54.498;18.544;2023-12-22T04:12:44;2.70;;;1.80;;
71204;SDS011;58935;54.498;18.544;2023-12-22T04:15:10;1.90;;;1.80;;
71204;SDS011;58935;54.498;18.544;2023-12-22T04:17:38;3.80;;;1.70;;
71204;SDS011;58935;54.498;18.544;2023-12-22T04:20:06;5.20;;;2.30;;
71204;SDS011;58935;54.498;18.544;2023-12-22T04:22:32;5.20;;;1.80;;
71204;SDS011;58935;54.498;18.544;2023-12-22T04:24:58;2.70;;;1.70;;
71204;SDS011;58935;54.498;18.544;2023-12-22T04:27:24;6.70;;;1.90;;
71204;SDS011;58935;54.498;18.544;2023-12-22T04:29:49;6.40;;;2.00;;
71204;SDS011;58935;54.498;18.544;2023-12-22T04:32:15;4.20;;;1.60;;
71204;SDS011;58935;54.498;18.544;2023-12-22T04:34:40;7.70;;;2.20;;
71204;SDS011;58935;54.498;18.544;2023-12-22T04:37:06;3.70;;;1.70;;
71204;SDS011;58935;54.498;18.544;2023-12-22T04:39:31;3.40;;;1.50;;
71204;SDS011;58935;54.498;18.544;2023-12-22T04:41:57;5.50;;;2.00;;
71204;SDS011;58935;54.498;18.544;2023-12-22T04:44:23;7.10;;;1.90;;
71204;SDS011;58935;54.498;18.544;2023-12-22T04:46:49;5.10;;;1.90;;
71204;SDS011;58935;54.498;18.544;2023-12-22T04:49:14;4.40;;;1.80;;
71204;SDS011;58935;54.498;18.544;2023-12-22T04:51:40;3.20;;;1.80;;
71204;SDS011;58935;54.498;18.544;2023-12-22T04:54:05;5.70;;;1.90;;
71204;SDS011;58935;54.498;18.544;2023-12-22T04:56:30;2.30;;;1.20;;
71204;SDS011;58935;54.498;18.544;2023-12-22T04:58:56;4.70;;;1.70;;
71204;SDS011;58935;54.498;18.544;2023-12-22T05:01:21;3.20;;;1.50;;
71204;SDS011;58935;54.498;18.544;2023-12-22T05:03:47;2.20;;;1.50;;
71204;SDS011;58935;54.498;18.544;2023-12-22T05:06:12;5.10;;;1.90;;
71204;SDS011;58935;54.498;18.544;2023-12-22T05:08:38;6.30;;;1.80;;
71204;SDS011;58935;54.498;18.544;2023-12-22T05:11:03;4.30;;;1.90;;
71204;SDS011;58935;54.498;18.544;2023-12-22T05:13:31;4.20;;;1.90;;
71204;SDS011;58935;54.498;18.544;2023-12-22T05:15:56;5.00;;;2.20;;
71204;SDS011;58935;54.498;18.544;2023-12-22T05:18:22;6.20;;;2.10;;
71204;SDS011;58935;54.498;18.544;2023-12-22T05:20:49;7.40;;;1.90;;
71204;SDS011;58935;54.498;18.544;2023-12-22T05:23:15;6.10;;;2.00;;
71204;SDS011;58935;54.498;18.544;2023-12-22T05:25:43;8.10;;;2.30;;
71204;SDS011;58935;54.498;18.544;2023-12-22T05:28:08;5.70;;;2.50;;
71204;SDS011;58935;54.498;18.544;2023-12-22T05:30:34;11.10;;;3.40;;
71204;SDS011;58935;54.498;18.544;2023-12-22T05:33:00;11.40;;;3.90;;
71204;SDS011;58935;54.498;18.544;2023-12-22T05:35:25;8.00;;;3.30;;
71204;SDS011;58935;54.498;18.544;2023-12-22T05:37:51;12.60;;;3.50;;
71204;SDS011;58935;54.498;18.544;2023-12-22T05:40:16;13.70;;;4.20;;
71204;SDS011;58935;54.498;18.544;2023-12-22T05:42:42;15.20;;;3.90;;
71204;SDS011;58935;54.498;18.544;2023-12-22T05:45:08;15.30;;;3.50;;
71204;SDS011;58935;54.498;18.544;2023-12-22T05:47:40;13.20;;;3.80;;
71204;SDS011;58935;54.498;18.544;2023-12-22T05:50:07;11.80;;;3.20;;
71204;SDS011;58935;54.498;18.544;2023-12-22T05:52:33;15.70;;;3.10;;
71204;SDS011;58935;54.498;18.544;2023-12-22T05:54:58;13.20;;;3.10;;
71204;SDS011;58935;54.498;18.544;2023-12-22T05:57:25;7.30;;;3.30;;
71204;SDS011;58935;54.498;18.544;2023-12-22T05:59:51;10.30;;;2.90;;
71204;SDS011;58935;54.498;18.544;2023-12-22T06:02:17;11.00;;;2.80;;
71204;SDS011;58935;54.498;18.544;2023-12-22T06:04:43;9.20;;;2.50;;
71204;SDS011;58935;54.498;18.544;2023-12-22T06:07:10;9.60;;;3.10;;
71204;SDS011;58935;54.498;18.544;2023-12-22T06:09:36;18.60;;;3.70;;
71204;SDS011;58935;54.498;18.544;2023-12-22T06:12:02;17.00;;;4.10;;
71204;SDS011;58935;54.498;18.544;2023-12-22T06:14:28;13.90;;;3.50;;
71204;SDS011;58935;54.498;18.544;2023-12-22T06:16:53;14.20;;;3.30;;
71204;SDS011;58935;54.498;18.544;2023-12-22T06:19:21;11.20;;;3.40;;
71204;SDS011;58935;54.498;18.544;2023-12-22T06:21:49;13.40;;;3.30;;
71204;SDS011;58935;54.498;18.544;2023-12-22T06:24:15;12.70;;;3.60;;
71204;SDS011;58935;54.498;18.544;2023-12-22T06:26:41;11.80;;;3.30;;
71204;SDS011;58935;54.498;18.544;2023-12-22T06:29:07;15.10;;;3.20;;
71204;SDS011;58935;54.498;18.544;2023-12-22T06:31:33;10.90;;;3.30;;
71204;SDS011;58935;54.498;18.544;2023-12-22T06:33:58;9.90;;;3.10;;
71204;SDS011;58935;54.498;18.544;2023-12-22T06:36:27;13.80;;;3.50;;
71204;SDS011;58935;54.498;18.544;2023-12-22T06:38:54;14.60;;;4.00;;
71204;SDS011;58935;54.498;18.544;2023-12-22T06:41:23;19.70;;;6.10;;
71204;SDS011;58935;54.498;18.544;2023-12-22T06:43:50;12.40;;;3.90;;
71204;SDS011;58935;54.498;18.544;2023-12-22T06:46:17;10.00;;;3.50;;
71204;SDS011;58935;54.498;18.544;2023-12-22T06:48:44;13.50;;;3.60;;
71204;SDS011;58935;54.498;18.544;2023-12-22T06:53:42;15.20;;;3.30;;
71204;SDS011;58935;54.498;18.544;2023-12-22T06:56:24;10.90;;;3.30;;
71204;SDS011;58935;54.498;18.544;2023-12-22T06:58:53;10.70;;;3.30;;
71204;SDS011;58935;54.498;18.544;2023-12-22T07:01:23;9.60;;;3.20;;
71204;SDS011;58935;54.498;18.544;2023-12-22T07:03:50;9.90;;;3.10;;
71204;SDS011;58935;54.498;18.544;2023-12-22T07:06:17;13.60;;;2.90;;
71204;SDS011;58935;54.498;18.544;2023-12-22T07:08:44;8.50;;;3.40;;
71204;SDS011;58935;54.498;18.544;2023-12-22T07:11:10;14.20;;;3.30;;
71204;SDS011;58935;54.498;18.544;2023-12-22T07:13:37;8.10;;;2.90;;
71204;SDS011;58935;54.498;18.544;2023-12-22T07:16:04;5.40;;;2.90;;
71204;SDS011;58935;54.498;18.544;2023-12-22T07:18:30;8.10;;;2.60;;
71204;SDS011;58935;54.498;18.544;2023-12-22T07:20:57;5.80;;;2.20;;
71204;SDS011;58935;54.498;18.544;2023-12-22T07:23:23;9.60;;;2.70;;
71204;SDS011;58935;54.498;18.544;2023-12-22T07:25:49;7.40;;;2.60;;
71204;SDS011;58935;54.498;18.544;2023-12-22T07:28:15;10.20;;;2.90;;
71204;SDS011;58935;54.498;18.544;2023-12-22T07:30:40;6.90;;;2.30;;
71204;SDS011;58935;54.498;18.544;2023-12-22T07:33:06;10.40;;;2.50;;
71204;SDS011;58935;54.498;18.544;2023-12-22T07:35:33;9.80;;;3.30;;
71204;SDS011;58935;54.498;18.544;2023-12-22T07:37:59;7.70;;;2.80;;
71204;SDS011;58935;54.498;18.544;2023-12-22T07:40:25;8.90;;;3.10;;
71204;SDS011;58935;54.498;18.544;2023-12-22T07:42:50;4.80;;;2.40;;
71204;SDS011;58935;54.498;18.544;2023-12-22T07:45:16;5.30;;;2.60;;
71204;SDS011;58935;54.498;18.544;2023-12-22T07:47:41;10.10;;;3.30;;
71204;SDS011;58935;54.498;18.544;2023-12-22T07:50:07;9.20;;;3.10;;
71204;SDS011;58935;54.498;18.544;2023-12-22T07:52:34;12.00;;;3.80;;
71204;SDS011;58935;54.498;18.544;2023-12-22T07:55:07;7.70;;;3.20;;
71204;SDS011;58935;54.498;18.544;2023-12-22T07:57:36;10.30;;;3.00;;
71204;SDS011;58935;54.498;18.544;2023-12-22T08:00:04;5.00;;;2.40;;
71204;SDS011;58935;54.498;18.544;2023-12-22T08:02:30;8.10;;;3.40;;
71204;SDS011;58935;54.498;18.544;2023-12-22T08:04:56;4.90;;;3.20;;
71204;SDS011;58935;54.498;18.544;2023-12-22T08:07:23;7.00;;;3.30;;
71204;SDS011;58935;54.498;18.544;2023-12-22T08:09:49;6.70;;;3.30;;
71204;SDS011;58935;54.498;18.544;2023-12-22T08:12:14;8.20;;;3.90;;
71204;SDS011;58935;54.498;18.544;2023-12-22T08:14:40;6.30;;;3.00;;
71204;SDS011;58935;54.498;18.544;2023-12-22T08:17:06;6.00;;;2.00;;
71204;SDS011;58935;54.498;18.544;2023-12-22T08:19:31;7.00;;;2.70;;
71204;SDS011;58935;54.498;18.544;2023-12-22T08:21:56;5.10;;;2.40;;
71204;SDS011;58935;54.498;18.544;2023-12-22T08:24:22;5.40;;;2.40;;
71204;SDS011;58935;54.498;18.544;2023-12-22T08:26:49;6.20;;;2.80;;
71204;SDS011;58935;54.498;18.544;2023-12-22T08:29:15;5.80;;;2.90;;
71204;SDS011;58935;54.498;18.544;2023-12-22T08:31:47;2.40;;;2.10;;
71204;SDS011;58935;54.498;18.544;2023-12-22T08:34:12;4.80;;;2.60;;
71204;SDS011;58935;54.498;18.544;2023-12-22T08:36:42;5.90;;;2.30;;
71204;SDS011;58935;54.498;18.544;2023-12-22T08:39:13;4.60;;;2.30;;
71204;SDS011;58935;54.498;18.544;2023-12-22T08:41:39;2.80;;;1.90;;
71204;SDS011;58935;54.498;18.544;2023-12-22T08:44:05;2.70;;;1.90;;
71204;SDS011;58935;54.498;18.544;2023-12-22T08:46:31;3.10;;;2.30;;
71204;SDS011;58935;54.498;18.544;2023-12-22T08:48:57;3.90;;;2.30;;
71204;SDS011;58935;54.498;18.544;2023-12-22T08:51:25;4.60;;;2.60;;
71204;SDS011;58935;54.498;18.544;2023-12-22T08:53:52;1.80;;;1.60;;
71204;SDS011;58935;54.498;18.544;2023-12-22T08:56:20;5.80;;;2.30;;
71204;SDS011;58935;54.498;18.544;2023-12-22T08:58:50;2.30;;;1.90;;
71204;SDS011;58935;54.498;18.544;2023-12-22T09:01:17;1.70;;;1.60;;
71204;SDS011;58935;54.498;18.544;2023-12-22T09:03:47;1.90;;;1.70;;
71204;SDS011;58935;54.498;18.544;2023-12-22T09:06:15;4.00;;;2.00;;
71204;SDS011;58935;54.498;18.544;2023-12-22T09:08:42;1.70;;;1.60;;
71204;SDS011;58935;54.498;18.544;2023-12-22T09:11:10;2.80;;;1.90;;
71204;SDS011;58935;54.498;18.544;2023-12-22T09:16:20;2.70;;;1.80;;
71204;SDS011;58935;54.498;18.544;2023-12-22T09:18:46;2.90;;;1.40;;
71204;SDS011;58935;54.498;18.544;2023-12-22T09:21:12;1.50;;;1.40;;
71204;SDS011;58935;54.498;18.544;2023-12-22T09:23:37;2.90;;;1.50;;
71204;SDS011;58935;54.498;18.544;2023-12-22T09:26:05;1.80;;;1.60;;
71204;SDS011;58935;54.498;18.544;2023-12-22T09:28:30;4.00;;;1.70;;
71204;SDS011;58935;54.498;18.544;2023-12-22T09:30:58;2.30;;;2.10;;
71204;SDS011;58935;54.498;18.544;2023-12-22T09:33:23;2.90;;;2.00;;
71204;SDS011;58935;54.498;18.544;2023-12-22T09:35:48;2.30;;;1.60;;
71204;SDS011;58935;54.498;18.544;2023-12-22T09:38:16;2.20;;;1.60;;
71204;SDS011;58935;54.498;18.544;2023-12-22T09:40:42;2.30;;;1.50;;
71204;SDS011;58935;54.498;18.544;2023-12-22T09:43:08;2.10;;;1.60;;
71204;SDS011;58935;54.498;18.544;2023-12-22T09:45:34;4.30;;;1.70;;
71204;SDS011;58935;54.498;18.544;2023-12-22T09:48:01;2.90;;;1.70;;
71204;SDS011;58935;54.498;18.544;2023-12-22T09:50:27;1.60;;;1.50;;
71204;SDS011;58935;54.498;18.544;2023-12-22T09:52:53;2.30;;;1.40;;
71204;SDS011;58935;54.498;18.544;2023-12-22T09:55:21;1.90;;;1.30;;
71204;SDS011;58935;54.498;18.544;2023-12-22T09:57:49;3.90;;;2.10;;
71204;SDS011;58935;54.498;18.544;2023-12-22T10:00:15;3.50;;;2.80;;
71204;SDS011;58935;54.498;18.544;2023-12-22T10:02:43;2.60;;;2.30;;
71204;SDS011;58935;54.498;18.544;2023-12-22T10:05:11;2.00;;;1.80;;
71204;SDS011;58935;54.498;18.544;2023-12-22T10:07:41;2.70;;;2.20;;
71204;SDS011;58935;54.498;18.544;2023-12-22T10:10:09;3.10;;;2.40;;
71204;SDS011;58935;54.498;18.544;2023-12-22T10:12:38;2.50;;;1.90;;
71204;SDS011;58935;54.498;18.544;2023-12-22T10:15:05;2.50;;;2.10;;
71204;SDS011;58935;54.498;18.544;2023-12-22T10:17:36;3.90;;;2.30;;
71204;SDS011;58935;54.498;18.544;2023-12-22T10:20:02;2.20;;;1.90;;
71204;SDS011;58935;54.498;18.544;2023-12-22T10:22:36;2.00;;;1.90;;
71204;SDS011;58935;54.498;18.544;2023-12-22T10:25:02;2.20;;;1.70;;
71204;SDS011;58935;54.498;18.544;2023-12-22T10:27:28;5.90;;;2.90;;
71204;SDS011;58935;54.498;18.544;2023-12-22T10:29:57;6.00;;;3.00;;
71204;SDS011;58935;54.498;18.544;2023-12-22T10:32:22;6.30;;;3.60;;
71204;SDS011;58935;54.498;18.544;2023-12-22T10:34:51;2.70;;;2.30;;
71204;SDS011;58935;54.498;18.544;2023-12-22T10:37:17;5.30;;;3.00;;
71204;SDS011;58935;54.498;18.544;2023-12-22T10:39:46;2.50;;;2.10;;
71204;SDS011;58935;54.498;18.544;2023-12-22T10:42:14;4.60;;;2.90;;
71204;SDS011;58935;54.498;18.544;2023-12-22T10:44:40;3.00;;;2.70;;
71204;SDS011;58935;54.498;18.544;2023-12-22T10:47:07;3.60;;;2.20;;
71204;SDS011;58935;54.498;18.544;2023-12-22T10:49:36;2.00;;;1.80;;
71204;SDS011;58935;54.498;18.544;2023-12-22T10:52:02;2.90;;;1.90;;
71204;SDS011;58935;54.498;18.544;2023-12-22T10:54:29;3.20;;;1.80;;
71204;SDS011;58935;54.498;18.544;2023-12-22T10:56:58;2.70;;;1.80;;
71204;SDS011;58935;54.498;18.544;2023-12-22T10:59:28;2.80;;;1.80;;
71204;SDS011;58935;54.498;18.544;2023-12-22T11:01:59;3.20;;;1.40;;
71204;SDS011;58935;54.498;18.544;2023-12-22T11:04:30;1.80;;;1.50;;
71204;SDS011;58935;54.498;18.544;2023-12-22T11:06:59;1.70;;;1.50;;
71204;SDS011;58935;54.498;18.544;2023-12-22T11:09:34;3.20;;;1.90;;
71204;SDS011;58935;54.498;18.544;2023-12-22T11:12:01;6.80;;;4.70;;
71204;SDS011;58935;54.498;18.544;2023-12-22T11:14:29;3.80;;;2.20;;
71204;SDS011;58935;54.498;18.544;2023-12-22T11:16:59;2.40;;;1.90;;
71204;SDS011;58935;54.498;18.544;2023-12-22T11:19:26;2.60;;;2.40;;
71204;SDS011;58935;54.498;18.544;2023-12-22T11:21:57;3.50;;;2.40;;
71204;SDS011;58935;54.498;18.544;2023-12-22T11:24:25;1.90;;;1.70;;
71204;SDS011;58935;54.498;18.544;2023-12-22T11:26:54;1.30;;;1.10;;
71204;SDS011;58935;54.498;18.544;2023-12-22T11:29:24;2.70;;;1.40;;
71204;SDS011;58935;54.498;18.544;2023-12-22T11:31:54;2.50;;;2.10;;
71204;SDS011;58935;54.498;18.544;2023-12-22T11:34:23;4.90;;;1.90;;
71204;SDS011;58935;54.498;18.544;2023-12-22T11:36:50;1.80;;;1.60;;
71204;SDS011;58935;54.498;18.544;2023-12-22T11:39:19;7.80;;;2.00;;
71204;SDS011;58935;54.498;18.544;2023-12-22T11:41:44;4.00;;;3.00;;
71204;SDS011;58935;54.498;18.544;2023-12-22T11:44:12;2.70;;;2.20;;
71204;SDS011;58935;54.498;18.544;2023-12-22T11:46:38;2.70;;;2.10;;
71204;SDS011;58935;54.498;18.544;2023-12-22T11:49:03;1.70;;;1.60;;
71204;SDS011;58935;54.498;18.544;2023-12-22T11:51:32;3.20;;;2.90;;
71204;SDS011;58935;54.498;18.544;2023-12-22T11:54:00;1.70;;;1.60;;
71204;SDS011;58935;54.498;18.544;2023-12-22T11:56:25;1.90;;;1.70;;
71204;SDS011;58935;54.498;18.544;2023-12-22T11:58:52;1.40;;;1.10;;
71204;SDS011;58935;54.498;18.544;2023-12-22T12:01:23;2.60;;;2.40;;
71204;SDS011;58935;54.498;18.544;2023-12-22T12:03:51;1.80;;;1.70;;
71204;SDS011;58935;54.498;18.544;2023-12-22T12:06:36;1.80;;;1.70;;
71204;SDS011;58935;54.498;18.544;2023-12-22T12:09:06;2.30;;;2.00;;
71204;SDS011;58935;54.498;18.544;2023-12-22T12:14:09;1.20;;;1.10;;
71204;SDS011;58935;54.498;18.544;2023-12-22T12:16:40;1.10;;;1.00;;
71204;SDS011;58935;54.498;18.544;2023-12-22T12:19:08;1.40;;;1.30;;
71204;SDS011;58935;54.498;18.544;2023-12-22T12:21:34;2.10;;;1.20;;
71204;SDS011;58935;54.498;18.544;2023-12-22T12:24:00;1.90;;;1.70;;
71204;SDS011;58935;54.498;18.544;2023-12-22T12:26:27;1.60;;;1.50;;
71204;SDS011;58935;54.498;18.544;2023-12-22T12:28:55;3.40;;;1.70;;
71204;SDS011;58935;54.498;18.544;2023-12-22T12:31:35;2.30;;;1.50;;
71204;SDS011;58935;54.498;18.544;2023-12-22T12:34:04;2.50;;;2.30;;
71204;SDS011;58935;54.498;18.544;2023-12-22T12:36:31;2.30;;;2.00;;
71204;SDS011;58935;54.498;18.544;2023-12-22T12:39:07;1.50;;;1.40;;
71204;SDS011;58935;54.498;18.544;2023-12-22T12:41:36;1.80;;;1.70;;
71204;SDS011;58935;54.498;18.544;2023-12-22T12:44:07;2.20;;;2.10;;
71204;SDS011;58935;54.498;18.544;2023-12-22T12:46:37;1.40;;;1.30;;
71204;SDS011;58935;54.498;18.544;2023-12-22T12:49:11;1.60;;;1.50;;
71204;SDS011;58935;54.498;18.544;2023-12-22T12:51:38;1.80;;;1.70;;
71204;SDS011;58935;54.498;18.544;2023-12-22T12:54:06;1.90;;;1.20;;
71204;SDS011;58935;54.498;18.544;2023-12-22T12:56:37;1.20;;;1.20;;
71204;SDS011;58935;54.498;18.544;2023-12-22T13:04:09;2.00;;;1.80;;
71204;SDS011;58935;54.498;18.544;2023-12-22T13:06:43;1.90;;;1.80;;
71204;SDS011;58935;54.498;18.544;2023-12-22T13:09:11;1.70;;;1.60;;
71204;SDS011;58935;54.498;18.544;2023-12-22T13:11:39;2.00;;;1.50;;
71204;SDS011;58935;54.498;18.544;2023-12-22T13:14:08;1.70;;;1.60;;
71204;SDS011;58935;54.498;18.544;2023-12-22T13:16:39;2.10;;;1.70;;
71204;SDS011;58935;54.498;18.544;2023-12-22T13:19:05;1.50;;;1.30;;
71204;SDS011;58935;54.498;18.544;2023-12-22T13:21:31;2.80;;;1.90;;
71204;SDS011;58935;54.498;18.544;2023-12-22T13:26:31;1.60;;;1.50;;
71204;SDS011;58935;54.498;18.544;2023-12-22T13:28:57;2.90;;;2.70;;
71204;SDS011;58935;54.498;18.544;2023-12-22T13:31:24;2.60;;;1.90;;
71204;SDS011;58935;54.498;18.544;2023-12-22T13:33:52;2.00;;;1.80;;
71204;SDS011;58935;54.498;18.544;2023-12-22T13:36:18;4.00;;;2.20;;
71204;SDS011;58935;54.498;18.544;2023-12-22T13:38:47;4.30;;;2.70;;
71204;SDS011;58935;54.498;18.544;2023-12-22T13:41:14;3.60;;;2.60;;
71204;SDS011;58935;54.498;18.544;2023-12-22T13:43:41;8.50;;;5.40;;
71204;SDS011;58935;54.498;18.544;2023-12-22T13:46:12;11.40;;;3.70;;
71204;SDS011;58935;54.498;18.544;2023-12-22T13:48:40;6.00;;;4.40;;
71204;SDS011;58935;54.498;18.544;2023-12-22T13:51:06;17.50;;;9.60;;
71204;SDS011;58935;54.498;18.544;2023-12-22T13:53:31;5.10;;;4.20;;
71204;SDS011;58935;54.498;18.544;2023-12-22T13:55:58;2.20;;;2.00;;
71204;SDS011;58935;54.498;18.544;2023-12-22T13:58:26;1.80;;;1.60;;
71204;SDS011;58935;54.498;18.544;2023-12-22T14:00:52;2.00;;;1.90;;
71204;SDS011;58935;54.498;18.544;2023-12-22T14:03:19;1.90;;;1.70;;
71204;SDS011;58935;54.498;18.544;2023-12-22T14:05:48;1.60;;;1.50;;
71204;SDS011;58935;54.498;18.544;2023-12-22T14:08:15;1.90;;;1.50;;
71204;SDS011;58935;54.498;18.544;2023-12-22T14:10:44;1.20;;;1.10;;
71204;SDS011;58935;54.498;18.544;2023-12-22T14:13:12;2.10;;;1.20;;
71204;SDS011;58935;54.498;18.544;2023-12-22T14:15:38;1.00;;;1.00;;
71204;SDS011;58935;54.498;18.544;2023-12-22T14:18:04;1.10;;;1.10;;
71204;SDS011;58935;54.498;18.544;2023-12-22T14:20:29;2.20;;;1.60;;
71204;SDS011;58935;54.498;18.544;2023-12-22T14:22:55;2.40;;;1.50;;
71204;SDS011;58935;54.498;18.544;2023-12-22T14:25:22;2.20;;;1.40;;
71204;SDS011;58935;54.498;18.544;2023-12-22T14:27:50;1.40;;;1.30;;
71204;SDS011;58935;54.498;18.544;2023-12-22T14:30:15;1.70;;;1.60;;
71204;SDS011;58935;54.498;18.544;2023-12-22T14:32:42;1.70;;;1.60;;
71204;SDS011;58935;54.498;18.544;2023-12-22T14:35:07;1.70;;;1.40;;
71204;SDS011;58935;54.498;18.544;2023-12-22T14:37:32;1.50;;;1.40;;
71204;SDS011;58935;54.498;18.544;2023-12-22T14:39:59;1.10;;;1.10;;
71204;SDS011;58935;54.498;18.544;2023-12-22T14:42:26;1.30;;;1.30;;
71204;SDS011;58935;54.498;18.544;2023-12-22T14:44:51;1.00;;;1.00;;
71204;SDS011;58935;54.498;18.544;2023-12-22T14:47:18;1.70;;;1.50;;
71204;SDS011;58935;54.498;18.544;2023-12-22T14:49:44;1.30;;;1.30;;
71204;SDS011;58935;54.498;18.544;2023-12-22T14:52:09;2.00;;;1.90;;